Terminal Aerodrome Forecast
Issued by NWS Grand Forks, ND

Home | Current Version | Previous Version | Text Only | Print | Product List | Glossary Off
Versions: 1 2 3 4 5 6 7 8 9 10 11 12 13 14 15 16 17 18 19

000
FTUS43 KFGF 240923 AAA
TAFGFK
TAF AMD
KGFK 240923Z 2409/2506 10010KT P6SM OVC007
      TEMPO 2409/2412 2SM BR OVC004
     FM241200 12012KT P6SM OVC005
     FM241600 14016KT P6SM OVC015
     FM241900 15016KT P6SM OVC035=

USA.gov is the U.S. government's official web portal to all federal, state and local government web resources and services.